createdAt,value
2022-08-02T00:02:45.739Z,84.30
2022-08-02T00:05:35.243Z,84.30
2022-08-02T00:08:22.234Z,84.40
2022-08-02T00:11:07.394Z,84.40
2022-08-02T00:13:55.353Z,84.50
2022-08-02T00:16:40.966Z,84.70
2022-08-02T00:19:26.375Z,84.80
2022-08-02T00:22:12.535Z,84.80
2022-08-02T00:24:58.503Z,84.90
2022-08-02T00:27:43.837Z,85.00
2022-08-02T00:30:29.531Z,85.10
2022-08-02T00:33:15.140Z,84.90
2022-08-02T00:36:04.781Z,84.90
2022-08-02T00:38:50.957Z,85.10
2022-08-02T00:41:49.456Z,85.20
2022-08-02T00:44:36.911Z,85.20
2022-08-02T00:47:22.473Z,85.20
2022-08-02T00:50:08.291Z,85.30
2022-08-02T00:52:54.148Z,85.20
2022-08-02T00:55:40.117Z,85.30
2022-08-02T00:58:25.628Z,85.40
2022-08-02T01:01:10.981Z,85.40
2022-08-02T01:03:56.476Z,85.50
2022-08-02T01:06:48.928Z,85.40
2022-08-02T01:09:37.455Z,85.30
2022-08-02T01:12:22.928Z,85.30
2022-08-02T01:15:11.429Z,85.40
2022-08-02T01:18:02.792Z,85.50
2022-08-02T01:21:06.985Z,85.60
2022-08-02T01:23:58.787Z,85.50
2022-08-02T01:26:49.277Z,85.50
2022-08-02T01:29:53.605Z,85.60
2022-08-02T01:32:46.384Z,85.60
2022-08-02T01:35:47.367Z,85.70
2022-08-02T01:38:40.140Z,85.90
2022-08-02T01:41:28.122Z,85.90
2022-08-02T01:44:15.639Z,85.90
2022-08-02T01:47:11.055Z,85.90
2022-08-02T01:49:58.481Z,86.00
2022-08-02T01:52:52.909Z,86.00
2022-08-02T01:55:57.507Z,86.90
2022-08-02T01:58:47.344Z,86.10
2022-08-02T02:01:36.740Z,87.00
2022-08-02T02:04:26.472Z,86.40
2022-08-02T02:07:15.834Z,86.30
2022-08-02T02:10:03.028Z,86.30
2022-08-02T02:12:51.278Z,86.50
2022-08-02T02:15:43.580Z,86.50
2022-08-02T02:18:30.648Z,86.70
2022-08-02T02:21:16.806Z,86.60
2022-08-02T02:24:02.911Z,86.70
2022-08-02T02:26:52.475Z,86.80
2022-08-02T02:29:42.189Z,87.10
2022-08-02T02:32:29.693Z,87.10
2022-08-02T02:35:17.901Z,87.20
2022-08-02T02:38:08.035Z,87.30
2022-08-02T02:40:54.408Z,87.30
2022-08-02T02:43:41.282Z,87.40
2022-08-02T02:46:30.088Z,87.30
2022-08-02T02:49:17.271Z,87.60
2022-08-02T02:52:05.532Z,87.50
2022-08-02T02:54:52.154Z,87.80
2022-08-02T02:57:39.649Z,87.80
2022-08-02T03:00:43.930Z,88.50
2022-08-02T03:03:30.086Z,87.80
2022-08-02T03:06:16.151Z,87.80
2022-08-02T03:09:01.896Z,87.90
2022-08-02T03:11:48.537Z,87.80
2022-08-02T03:14:34.745Z,87.80
2022-08-02T03:17:20.616Z,87.80
2022-08-02T03:20:11.406Z,87.80
2022-08-02T03:22:57.099Z,87.80
2022-08-02T03:25:42.716Z,87.90
2022-08-02T03:28:28.646Z,87.90
2022-08-02T03:31:14.486Z,88.00
2022-08-02T03:34:03.781Z,88.10
2022-08-02T03:36:52.257Z,88.10
2022-08-02T03:39:38.509Z,88.30
2022-08-02T03:42:40.449Z,88.40
2022-08-02T03:45:26.718Z,88.40
2022-08-02T03:48:33.999Z,88.40
2022-08-02T03:51:21.491Z,88.50
2022-08-02T03:54:07.356Z,88.60
2022-08-02T03:56:53.078Z,88.50
2022-08-02T03:59:43.363Z,88.60
2022-08-02T04:02:28.837Z,88.60
2022-08-02T04:05:14.971Z,88.60
2022-08-02T04:08:32.882Z,88.50
2022-08-02T04:11:25.645Z,88.50
2022-08-02T04:14:14.429Z,88.60
2022-08-02T04:17:04.541Z,88.80
2022-08-02T04:19:58.637Z,88.90
2022-08-02T04:23:06.590Z,88.70
2022-08-02T04:25:52.908Z,88.90
2022-08-02T04:28:40.257Z,88.80
2022-08-02T04:31:28.883Z,88.90
2022-08-02T04:34:15.918Z,89.80
2022-08-02T04:37:03.369Z,89.00
2022-08-02T04:39:49.002Z,89.00
2022-08-02T04:42:34.696Z,89.00
2022-08-02T04:45:21.881Z,89.10
2022-08-02T04:48:07.992Z,89.10
2022-08-02T04:50:53.390Z,89.10
2022-08-02T04:53:38.954Z,89.10
2022-08-02T04:56:27.390Z,89.10
2022-08-02T04:59:13.080Z,89.10
2022-08-02T05:01:58.385Z,89.00
2022-08-02T05:04:43.888Z,89.00
2022-08-02T05:07:29.344Z,89.20
2022-08-02T05:10:21.528Z,89.20
2022-08-02T05:13:07.074Z,89.20
2022-08-02T05:15:52.838Z,89.20
2022-08-02T05:18:41.379Z,89.50
2022-08-02T05:21:27.977Z,90.00
2022-08-02T05:24:13.833Z,90.40
2022-08-02T05:26:59.403Z,90.70
2022-08-02T05:29:53.124Z,90.80
2022-08-02T05:32:52.713Z,91.10
2022-08-02T05:35:38.245Z,91.10
2022-08-02T05:38:26.174Z,91.00
2022-08-02T05:41:14.313Z,90.50
2022-08-02T05:43:59.809Z,90.40
2022-08-02T05:46:45.490Z,87.90
2022-08-02T05:49:34.046Z,85.20
2022-08-02T05:52:20.480Z,82.70
2022-08-02T05:55:17.423Z,81.20
2022-08-02T05:58:20.558Z,80.20
2022-08-02T06:01:08.893Z,77.50
2022-08-02T06:03:57.548Z,74.40
2022-08-02T06:06:47.867Z,73.30
2022-08-02T06:09:33.658Z,71.50
2022-08-02T06:12:20.870Z,69.60
2022-08-02T06:15:07.637Z,66.20
2022-08-02T06:17:53.255Z,64.90
2022-08-02T06:20:39.005Z,63.10
2022-08-02T06:23:28.027Z,61.50
2022-08-02T06:26:15.425Z,60.70
2022-08-02T06:29:02.896Z,59.80
2022-08-02T06:31:49.515Z,59.50
2022-08-02T06:34:41.329Z,59.60
2022-08-02T06:37:29.787Z,59.90
2022-08-02T06:40:31.552Z,60.10
2022-08-02T06:43:27.354Z,60.80
2022-08-02T06:47:08.371Z,61.70
2022-08-02T06:49:20.491Z,62.50
2022-08-02T06:52:06.515Z,62.90
2022-08-02T06:54:57.906Z,63.00
2022-08-02T06:57:43.629Z,63.30
2022-08-02T07:00:30.268Z,63.80
2022-08-02T07:03:16.156Z,64.50
2022-08-02T07:06:01.602Z,64.80
2022-08-02T07:09:11.131Z,65.50
2022-08-02T07:11:54.194Z,65.30
2022-08-02T07:14:39.845Z,65.90
2022-08-02T07:17:25.761Z,66.00
2022-08-02T07:20:11.494Z,65.90
2022-08-02T07:22:56.810Z,65.40
2022-08-02T07:26:02.325Z,64.50
2022-08-02T07:28:49.706Z,64.10
2022-08-02T07:31:35.456Z,64.70
2022-08-02T07:34:21.078Z,64.50
2022-08-02T07:37:06.936Z,63.40
2022-08-02T07:39:55.521Z,63.10
2022-08-02T07:42:42.170Z,63.70
2022-08-02T07:45:28.414Z,63.90
2022-08-02T07:48:13.822Z,63.80
2022-08-02T07:50:59.269Z,63.70
2022-08-02T07:53:50.810Z,63.60
2022-08-02T07:56:37.677Z,62.70
2022-08-02T07:59:23.241Z,62.10
2022-08-02T08:02:09.406Z,61.20
2022-08-02T08:04:55.395Z,60.50
2022-08-02T08:07:41.010Z,60.00
2022-08-02T08:10:28.025Z,59.40
2022-08-02T08:13:13.954Z,58.40
2022-08-02T08:15:59.364Z,58.00
2022-08-02T08:18:44.893Z,56.80
2022-08-02T08:21:38.783Z,56.90
2022-08-02T08:24:29.548Z,57.30
2022-08-02T08:27:15.791Z,57.00
2022-08-02T08:30:05.864Z,56.70
2022-08-02T08:32:51.377Z,56.30
2022-08-02T08:35:36.986Z,56.00
2022-08-02T08:38:22.549Z,56.30
2022-08-02T08:41:09.431Z,56.10
2022-08-02T08:43:54.980Z,56.10
2022-08-02T08:46:44.697Z,56.50
2022-08-02T08:49:37.339Z,56.80
2022-08-02T08:53:03.473Z,56.70
2022-08-02T08:55:49.142Z,57.00
2022-08-02T08:58:34.865Z,56.40
2022-08-02T09:01:20.529Z,56.10
2022-08-02T09:04:09.119Z,55.80
2022-08-02T09:06:55.710Z,55.60
2022-08-02T09:09:41.214Z,55.00
2022-08-02T09:12:26.862Z,55.00
2022-08-02T09:15:15.923Z,54.80
2022-08-02T09:18:06.629Z,54.20
2022-08-02T09:20:57.564Z,53.40
2022-08-02T09:23:50.002Z,53.30
2022-08-02T09:26:37.046Z,52.80
2022-08-02T09:29:24.659Z,52.60
2022-08-02T09:32:10.768Z,52.40
2022-08-02T09:34:56.710Z,51.90
2022-08-02T09:37:45.725Z,51.80
2022-08-02T09:40:42.249Z,51.20
2022-08-02T09:43:38.578Z,50.90
2022-08-02T09:46:45.991Z,50.80
2022-08-02T09:49:33.641Z,50.40
2022-08-02T09:52:37.234Z,49.60
2022-08-02T09:55:29.614Z,49.50
2022-08-02T09:58:20.025Z,49.80
2022-08-02T10:01:06.179Z,50.90
2022-08-02T10:04:00.509Z,50.10
2022-08-02T10:06:47.292Z,50.00
2022-08-02T10:09:33.740Z,50.20
2022-08-02T10:12:23.596Z,50.40
2022-08-02T10:15:09.741Z,50.10
2022-08-02T10:17:55.131Z,49.40
2022-08-02T10:20:44.993Z,50.10
2022-08-02T10:23:36.460Z,50.50
2022-08-02T10:26:22.790Z,50.10
2022-08-02T10:29:15.370Z,50.40
2022-08-02T10:32:27.367Z,50.70
2022-08-02T10:35:25.236Z,51.00
2022-08-02T10:38:13.082Z,50.90
2022-08-02T10:40:58.395Z,51.00
2022-08-02T10:43:48.209Z,50.30
2022-08-02T10:46:35.978Z,50.70
2022-08-02T10:49:40.053Z,50.40
2022-08-02T10:52:30.650Z,50.90
2022-08-02T10:55:22.191Z,50.30
2022-08-02T10:58:29.567Z,50.70
2022-08-02T11:01:38.690Z,50.70
2022-08-02T11:04:25.897Z,50.20
2022-08-02T11:07:22.520Z,49.80
2022-08-02T11:10:46.591Z,49.10
2022-08-02T11:14:07.742Z,48.20
2022-08-02T11:16:56.363Z,47.70
2022-08-02T11:20:13.239Z,47.80
2022-08-02T11:23:44.046Z,46.90
2022-08-02T11:26:31.549Z,47.20
2022-08-02T11:29:17.666Z,46.80
2022-08-02T11:32:04.897Z,46.10
2022-08-02T11:34:52.744Z,46.20
2022-08-02T11:37:41.030Z,45.60
2022-08-02T11:40:38.112Z,45.60
2022-08-02T11:43:27.209Z,46.10
2022-08-02T11:46:14.533Z,45.20
2022-08-02T11:49:18.438Z,45.50
2022-08-02T11:52:10.904Z,45.50
2022-08-02T11:54:56.673Z,45.60
2022-08-02T11:58:04.139Z,45.70
2022-08-02T12:00:48.523Z,46.00
2022-08-02T12:03:39.014Z,45.80
2022-08-02T12:06:25.934Z,46.00
2022-08-02T12:09:18.818Z,46.00
2022-08-02T12:12:06.080Z,46.00
2022-08-02T12:14:52.414Z,45.80
2022-08-02T12:17:56.198Z,45.50
2022-08-02T12:20:41.763Z,45.60
2022-08-02T12:23:27.682Z,46.40
2022-08-02T12:26:16.266Z,46.30
2022-08-02T12:29:02.472Z,45.50
2022-08-02T12:31:56.702Z,44.60
2022-08-02T12:34:43.514Z,44.30
2022-08-02T12:37:29.116Z,44.20
2022-08-02T12:40:26.517Z,44.30
2022-08-02T12:43:21.205Z,44.10
2022-08-02T12:46:17.071Z,44.70
2022-08-02T12:49:19.053Z,45.10
2022-08-02T12:52:24.307Z,45.50
2022-08-02T12:55:25.877Z,46.10
2022-08-02T12:58:46.070Z,46.50
2022-08-02T13:01:32.121Z,46.70
2022-08-02T13:04:17.791Z,46.30
2022-08-02T13:07:05.353Z,46.90
2022-08-02T13:09:51.286Z,47.50
2022-08-02T13:12:49.486Z,48.10
2022-08-02T13:15:49.995Z,48.00
2022-08-02T13:18:36.871Z,48.20
2022-08-02T13:21:40.208Z,48.50
2022-08-02T13:24:40.641Z,48.80
2022-08-02T13:27:33.849Z,49.30
2022-08-02T13:30:20.392Z,49.70
2022-08-02T13:33:06.157Z,49.60
2022-08-02T13:35:51.682Z,49.80
2022-08-02T13:38:37.123Z,49.50
2022-08-02T13:41:25.946Z,49.60
2022-08-02T13:44:11.432Z,50.20
2022-08-02T13:46:57.360Z,50.10
2022-08-02T13:49:51.179Z,49.40
2022-08-02T13:52:37.635Z,49.40
2022-08-02T13:55:23.863Z,49.50
2022-08-02T13:58:12.543Z,49.50
2022-08-02T14:00:58.241Z,49.70
2022-08-02T14:04:07.374Z,50.20
2022-08-02T14:06:49.909Z,50.70
2022-08-02T14:09:40.801Z,51.00
2022-08-02T14:12:26.735Z,51.00
2022-08-02T14:15:12.494Z,51.20
2022-08-02T14:18:00.538Z,51.00
2022-08-02T14:20:47.088Z,51.70
2022-08-02T14:23:49.082Z,52.10
2022-08-02T14:26:36.992Z,52.40
2022-08-02T14:29:22.684Z,52.60
2022-08-02T14:32:08.524Z,53.10
2022-08-02T14:34:55.658Z,53.00
2022-08-02T14:37:41.250Z,53.20
2022-08-02T14:40:30.749Z,53.20
2022-08-02T14:43:36.173Z,53.10
2022-08-02T14:46:21.533Z,52.90
2022-08-02T14:49:09.389Z,53.00
2022-08-02T14:51:55.569Z,53.00
2022-08-02T14:54:43.183Z,53.00
2022-08-02T14:57:29.027Z,53.10
2022-08-02T15:00:18.015Z,53.50
2022-08-02T15:03:03.490Z,53.60
2022-08-02T15:05:49.295Z,53.70
2022-08-02T15:08:34.985Z,53.80
2022-08-02T15:11:20.421Z,54.20
2022-08-02T15:14:06.033Z,54.00
2022-08-02T15:16:57.525Z,54.30
2022-08-02T15:19:57.621Z,54.20
2022-08-02T15:22:46.029Z,54.30
2022-08-02T15:25:38.491Z,54.50
2022-08-02T15:28:29.385Z,54.70
2022-08-02T15:31:32.774Z,54.40
2022-08-02T15:34:19.241Z,54.00
2022-08-02T15:37:04.964Z,53.60
2022-08-02T15:39:50.428Z,53.30
2022-08-02T15:42:38.861Z,52.90
2022-08-02T15:45:27.741Z,52.40
2022-08-02T15:48:13.531Z,52.00
2022-08-02T15:51:00.193Z,52.30
2022-08-02T15:53:46.112Z,51.50
2022-08-02T15:56:35.340Z,51.30
2022-08-02T15:59:21.048Z,51.20
2022-08-02T16:02:07.045Z,51.20
2022-08-02T16:04:52.817Z,51.40
2022-08-02T16:07:41.039Z,51.00
2022-08-02T16:10:27.063Z,50.90
2022-08-02T16:13:31.401Z,50.60
2022-08-02T16:16:19.655Z,50.20
2022-08-02T16:19:47.653Z,50.80
2022-08-02T16:22:12.363Z,50.20
2022-08-02T16:25:01.452Z,50.20
2022-08-02T16:28:05.928Z,49.70
2022-08-02T16:31:05.030Z,49.40
2022-08-02T16:33:57.090Z,49.10
2022-08-02T16:36:44.821Z,48.80
2022-08-02T16:39:30.408Z,48.60
2022-08-02T16:42:16.772Z,48.20
2022-08-02T16:45:11.083Z,48.10
2022-08-02T16:48:03.572Z,48.50
2022-08-02T16:50:55.386Z,48.30
2022-08-02T16:54:00.589Z,47.70
2022-08-02T16:56:46.591Z,47.60
2022-08-02T16:59:42.787Z,48.10
2022-08-02T17:02:32.975Z,48.10
2022-08-02T17:05:18.913Z,48.20
2022-08-02T17:08:17.307Z,48.10
2022-08-02T17:11:04.090Z,48.10
2022-08-02T17:13:49.791Z,48.40
2022-08-02T17:16:38.241Z,48.60
2022-08-02T17:19:28.381Z,48.50
2022-08-02T17:22:21.477Z,48.60
2022-08-02T17:25:10.922Z,48.80
2022-08-02T17:27:56.947Z,49.00
2022-08-02T17:30:42.604Z,49.50
2022-08-02T17:33:30.926Z,49.10
2022-08-02T17:36:18.305Z,49.20
2022-08-02T17:39:05.847Z,49.30
2022-08-02T17:41:52.640Z,49.70
2022-08-02T17:44:38.681Z,50.00
2022-08-02T17:47:30.863Z,50.50
2022-08-02T17:50:17.523Z,50.70
2022-08-02T17:53:05.738Z,50.90
2022-08-02T17:55:51.387Z,50.90
2022-08-02T17:58:36.827Z,51.20
2022-08-02T18:01:49.207Z,51.50
2022-08-02T18:04:38.957Z,51.60
2022-08-02T18:07:25.071Z,52.40
2022-08-02T18:10:10.875Z,52.00
2022-08-02T18:12:57.471Z,52.30
2022-08-02T18:15:45.925Z,52.50
2022-08-02T18:18:31.402Z,52.80
2022-08-02T18:21:22.804Z,53.10
2022-08-02T18:24:09.106Z,53.40
2022-08-02T18:26:57.750Z,53.80
2022-08-02T18:29:43.152Z,54.20
2022-08-02T18:33:55.766Z,54.60
2022-08-02T18:35:38.533Z,55.30
2022-08-02T18:38:25.072Z,56.30
2022-08-02T18:41:13.150Z,56.00
2022-08-02T18:43:59.065Z,56.60
2022-08-02T18:46:46.195Z,57.10
2022-08-02T18:49:46.146Z,57.70
2022-08-02T18:52:32.687Z,58.00
2022-08-02T18:55:59.750Z,58.50
2022-08-02T18:58:29.305Z,59.00
2022-08-02T19:01:21.965Z,59.40
2022-08-02T19:04:27.183Z,59.90
2022-08-02T19:07:13.422Z,60.50
2022-08-02T19:10:01.351Z,61.20
2022-08-02T19:12:47.453Z,61.70
2022-08-02T19:15:40.517Z,62.00
2022-08-02T19:18:31.178Z,62.80
2022-08-02T19:22:17.496Z,63.30
2022-08-02T19:24:29.173Z,64.00
2022-08-02T19:27:15.532Z,64.20
2022-08-02T19:30:09.327Z,64.80
2022-08-02T19:32:59.855Z,65.10
2022-08-02T19:36:01.400Z,65.40
2022-08-02T19:38:54.045Z,65.80
2022-08-02T19:41:43.794Z,66.30
2022-08-02T19:44:37.844Z,66.30
2022-08-02T19:47:26.513Z,66.70
2022-08-02T19:50:25.951Z,67.20
2022-08-02T19:53:11.939Z,67.90
2022-08-02T19:56:00.724Z,68.40
2022-08-02T19:58:48.625Z,68.90
2022-08-02T20:01:38.229Z,69.20
2022-08-02T20:04:26.140Z,69.70
2022-08-02T20:07:12.192Z,70.10
2022-08-02T20:10:11.072Z,70.50
2022-08-02T20:12:57.221Z,70.90
2022-08-02T20:15:56.405Z,71.20
2022-08-02T20:18:42.536Z,71.50
2022-08-02T20:21:36.288Z,72.00
2022-08-02T20:24:22.620Z,72.40
2022-08-02T20:27:16.998Z,73.00
2022-08-02T20:30:09.920Z,73.30
2022-08-02T20:33:02.516Z,73.70
2022-08-02T20:36:04.453Z,74.00
2022-08-02T20:38:50.369Z,74.40
2022-08-02T20:44:46.172Z,75.30
2022-08-02T20:47:39.738Z,75.60
2022-08-02T20:50:44.312Z,75.80
2022-08-02T20:53:35.588Z,76.20
2022-08-02T20:56:40.789Z,76.60
2022-08-02T20:59:27.787Z,76.90
2022-08-02T21:02:16.308Z,77.30
2022-08-02T21:08:17.501Z,77.90
2022-08-02T21:11:08.944Z,78.20
2022-08-02T21:14:06.613Z,78.30
2022-08-02T21:16:54.632Z,78.50
2022-08-02T21:19:44.392Z,79.60
2022-08-02T21:22:30.078Z,79.10
2022-08-02T21:25:15.970Z,79.30
2022-08-02T21:28:04.801Z,79.50
2022-08-02T21:30:50.481Z,79.80
2022-08-02T21:33:47.185Z,80.10
2022-08-02T21:36:42.631Z,80.10
2022-08-02T21:39:28.326Z,80.20
2022-08-02T21:42:16.422Z,80.40
2022-08-02T21:45:16.970Z,80.60
2022-08-02T21:48:05.763Z,80.60
2022-08-02T21:50:54.074Z,80.90
2022-08-02T21:53:42.522Z,81.10
2022-08-02T21:56:28.672Z,81.10
2022-08-02T21:59:15.844Z,81.20
2022-08-02T22:02:02.216Z,81.20
2022-08-02T22:04:49.587Z,81.40
2022-08-02T22:07:38.341Z,81.60
2022-08-02T22:10:24.134Z,81.70
2022-08-02T22:13:14.523Z,82.50
2022-08-02T22:16:03.399Z,82.00
2022-08-02T22:18:51.481Z,82.00
2022-08-02T22:21:46.876Z,82.10
2022-08-02T22:24:40.995Z,82.30
2022-08-02T22:28:36.626Z,82.30
2022-08-02T22:30:31.855Z,82.40
2022-08-02T22:33:42.153Z,82.70
2022-08-02T22:36:43.126Z,82.90
2022-08-02T22:39:29.044Z,83.10
2022-08-02T22:42:14.572Z,83.10
2022-08-02T22:45:00.146Z,83.40
2022-08-02T22:47:51.021Z,83.50
2022-08-02T22:50:36.817Z,83.40
2022-08-02T22:53:35.309Z,83.70
2022-08-02T22:56:22.030Z,83.70
2022-08-02T22:58:56.095Z,74.90
2022-08-02T22:58:56.965Z,77.50
2022-08-02T23:02:03.087Z,83.70
2022-08-02T23:04:49.439Z,84.00
2022-08-02T23:07:38.806Z,83.90
2022-08-02T23:10:24.888Z,84.10
2022-08-02T23:13:10.606Z,84.30
2022-08-02T23:16:14.850Z,84.60
2022-08-02T23:19:18.652Z,84.90
2022-08-02T23:22:04.623Z,84.90
2022-08-02T23:24:50.672Z,85.00
2022-08-02T23:27:36.140Z,85.00
2022-08-02T23:30:21.603Z,85.30
2022-08-02T23:33:07.082Z,85.50
2022-08-02T23:35:52.672Z,85.60
2022-08-02T23:38:38.400Z,85.80
2022-08-02T23:41:30.074Z,86.00
2022-08-02T23:44:15.787Z,86.20
2022-08-02T23:47:02.897Z,86.40
2022-08-02T23:49:48.543Z,86.70
2022-08-02T23:52:34.012Z,86.70
2022-08-02T23:55:22.485Z,86.80
2022-08-02T23:58:07.954Z,87.00
